In Rescue
 
Open Full Screen Window  High Contrast Mode
January 24, 2020 8:15 PM CST
Weather Information
Wind Direction
  ---
Wind Speed
  00 kt (0 mph)
Wind Gust
  00 kt (0 mph)
Altimeter
30.08 in
Visibility
10 SM
Temperature
-07° C
19° F
Dewpoint
-09° C
16° F
Humidity
86%
1hr Rain Fall
00.00 in.
24hr Rain Fall
00.00 in.
Sky Condition
Missing
VFR

METAR KFGN 250215Z AUTO 00000KT 10SM M07/M09 A3008 RMK AO2

FAA Disclaimer: The data displayed is for advisory purposes only and is not to be used for flight planning or operations.
Missing Cloud Data